createdAt,value
2022-10-27T00:01:17.759Z,18.00
2022-10-27T00:03:45.380Z,17.60
2022-10-27T00:06:12.698Z,17.17
2022-10-27T00:08:40.031Z,15.88
2022-10-27T00:11:07.673Z,16.70
2022-10-27T00:13:35.130Z,17.83
2022-10-27T00:16:04.604Z,18.40
2022-10-27T00:18:32.345Z,17.75
2022-10-27T00:21:02.995Z,17.12
2022-10-27T00:23:31.443Z,16.23
2022-10-27T00:25:59.150Z,16.42
2022-10-27T00:28:26.843Z,17.02
2022-10-27T00:30:58.639Z,17.00
2022-10-27T00:33:26.274Z,17.20
2022-10-27T00:35:53.592Z,16.58
2022-10-27T00:38:22.506Z,15.70
2022-10-27T00:40:50.102Z,15.55
2022-10-27T00:43:30.822Z,17.83
2022-10-27T00:46:02.528Z,18.27
2022-10-27T00:48:30.142Z,17.98
2022-10-27T00:50:58.873Z,16.92
2022-10-27T00:53:26.201Z,15.60
2022-10-27T00:55:53.498Z,17.02
2022-10-27T00:58:21.341Z,16.75
2022-10-27T01:00:48.721Z,15.27
2022-10-27T01:03:17.439Z,17.25
2022-10-27T01:05:45.042Z,16.33
2022-10-27T01:08:12.365Z,16.30
2022-10-27T01:10:39.682Z,16.20
2022-10-27T01:13:07.318Z,20.02
2022-10-27T01:15:39.779Z,20.15
2022-10-27T01:18:25.046Z,21.87
2022-10-27T01:21:19.756Z,21.70
2022-10-27T01:24:24.363Z,22.60
2022-10-27T01:27:00.030Z,24.17
2022-10-27T01:29:45.888Z,23.95
2022-10-27T01:32:25.105Z,17.62
2022-10-27T01:34:57.650Z,24.70
2022-10-27T01:37:30.463Z,24.20
2022-10-27T01:40:16.274Z,26.95
2022-10-27T01:42:50.168Z,25.80
2022-10-27T01:45:29.531Z,24.87
2022-10-27T01:47:56.911Z,25.52
2022-10-27T01:50:45.055Z,27.42
2022-10-27T01:53:20.810Z,25.15
2022-10-27T01:56:03.874Z,25.52
2022-10-27T01:58:43.271Z,25.17
2022-10-27T02:01:32.779Z,24.40
2022-10-27T02:04:00.247Z,24.15
2022-10-27T02:06:31.959Z,25.80
2022-10-27T02:09:18.536Z,24.50
2022-10-27T02:14:13.477Z,23.50
2022-10-27T02:16:43.524Z,24.30
2022-10-27T02:19:25.782Z,24.67
2022-10-27T02:21:54.271Z,24.65
2022-10-27T02:24:21.687Z,22.90
2022-10-27T02:26:57.256Z,25.45
2022-10-27T02:29:35.997Z,23.40
2022-10-27T02:32:05.588Z,24.05
2022-10-27T02:34:33.273Z,23.02
2022-10-27T02:37:00.663Z,23.73
2022-10-27T02:39:28.007Z,21.83
2022-10-27T02:41:55.593Z,23.87
2022-10-27T02:44:22.906Z,22.37
2022-10-27T02:46:52.846Z,23.83
2022-10-27T02:49:20.784Z,26.83
2022-10-27T02:51:48.118Z,27.37
2022-10-27T02:54:15.416Z,30.30
2022-10-27T02:56:43.005Z,31.00
2022-10-27T02:59:10.328Z,32.60
2022-10-27T03:01:37.877Z,30.35
2022-10-27T03:04:05.708Z,31.50
2022-10-27T03:06:33.004Z,32.03
2022-10-27T03:09:00.330Z,32.92
2022-10-27T03:11:27.921Z,32.15
2022-10-27T03:13:55.278Z,31.90
2022-10-27T03:16:22.605Z,32.15
2022-10-27T03:18:50.201Z,34.67
2022-10-27T03:21:17.527Z,32.33
2022-10-27T03:23:44.884Z,30.98
2022-10-27T03:26:12.508Z,35.42
2022-10-27T03:28:39.884Z,35.95
2022-10-27T03:31:07.209Z,33.78
2022-10-27T03:33:34.822Z,34.10
2022-10-27T03:36:02.235Z,34.08
2022-10-27T03:38:29.570Z,34.13
2022-10-27T03:40:57.152Z,34.97
2022-10-27T03:43:24.606Z,33.28
2022-10-27T03:45:55.074Z,30.58
2022-10-27T03:48:24.837Z,33.45
2022-10-27T03:50:52.157Z,36.42
2022-10-27T03:53:19.828Z,34.78
2022-10-27T03:55:47.924Z,35.95
2022-10-27T03:58:16.767Z,36.20
2022-10-27T04:00:44.839Z,35.33
2022-10-27T04:03:12.508Z,39.65
2022-10-27T04:05:39.842Z,37.75
2022-10-27T04:08:07.150Z,34.85
2022-10-27T04:10:34.740Z,35.33
2022-10-27T04:13:02.086Z,34.65
2022-10-27T04:15:29.493Z,35.83
2022-10-27T04:17:57.909Z,32.88
2022-10-27T04:20:25.611Z,34.20
2022-10-27T04:22:57.849Z,31.77
2022-10-27T04:25:25.678Z,33.38
2022-10-27T04:28:03.593Z,35.03
2022-10-27T04:30:31.442Z,32.35
2022-10-27T04:32:58.849Z,35.38
2022-10-27T04:35:26.234Z,31.55
2022-10-27T04:37:57.144Z,31.67
2022-10-27T04:40:24.623Z,33.78
2022-10-27T04:42:51.962Z,36.13
2022-10-27T04:45:19.695Z,31.25
2022-10-27T04:47:47.116Z,33.78
2022-10-27T04:50:14.657Z,31.73
2022-10-27T04:52:44.392Z,34.38
2022-10-27T04:55:12.027Z,33.03
2022-10-27T04:57:39.347Z,35.17
2022-10-27T05:00:07.613Z,35.78
2022-10-27T05:02:37.915Z,33.35
2022-10-27T05:05:06.480Z,33.50
2022-10-27T05:07:34.047Z,32.38
2022-10-27T05:10:01.408Z,30.77
2022-10-27T05:12:28.724Z,30.98
2022-10-27T05:14:56.327Z,33.17
2022-10-27T05:17:23.684Z,31.87
2022-10-27T05:19:51.014Z,33.00
2022-10-27T05:22:18.638Z,33.25
2022-10-27T05:24:45.946Z,30.77
2022-10-27T05:27:13.301Z,31.37
2022-10-27T05:29:40.922Z,30.02
2022-10-27T05:32:08.309Z,31.27
2022-10-27T05:34:35.642Z,31.55
2022-10-27T05:37:03.396Z,29.27
2022-10-27T05:39:30.738Z,26.65
2022-10-27T05:41:58.066Z,28.33
2022-10-27T05:44:25.652Z,28.23
2022-10-27T05:46:53.013Z,27.45
2022-10-27T05:49:20.333Z,26.12
2022-10-27T05:51:51.194Z,26.87
2022-10-27T05:54:18.811Z,26.52
2022-10-27T05:56:46.136Z,28.00
2022-10-27T05:59:13.733Z,27.60
2022-10-27T06:01:41.194Z,24.63
2022-10-27T06:04:08.854Z,27.23
2022-10-27T06:06:36.181Z,27.17
2022-10-27T06:09:03.582Z,25.77
2022-10-27T06:11:31.191Z,26.27
2022-10-27T06:13:58.493Z,26.15
2022-10-27T06:16:25.959Z,27.55
2022-10-27T06:18:54.023Z,27.13
2022-10-27T06:21:21.494Z,26.20
2022-10-27T06:23:49.268Z,27.05
2022-10-27T06:26:16.948Z,26.00
2022-10-27T06:28:44.280Z,24.40
2022-10-27T06:31:11.616Z,25.62
2022-10-27T06:33:39.193Z,26.42
2022-10-27T06:36:06.601Z,24.85
2022-10-27T06:38:33.933Z,25.55
2022-10-27T06:41:01.536Z,25.83
2022-10-27T06:43:28.905Z,26.58
2022-10-27T06:46:00.925Z,24.50
2022-10-27T06:48:29.515Z,26.15
2022-10-27T06:50:57.005Z,24.63
2022-10-27T06:53:24.450Z,28.08
2022-10-27T06:55:52.083Z,26.17
2022-10-27T06:58:19.423Z,26.77
2022-10-27T07:00:46.727Z,25.02
2022-10-27T07:03:14.377Z,23.80
2022-10-27T07:05:41.709Z,23.75
2022-10-27T07:08:09.109Z,23.58
2022-10-27T07:10:36.751Z,22.10
2022-10-27T07:13:04.149Z,21.25
2022-10-27T07:15:33.320Z,22.48
2022-10-27T07:18:03.175Z,23.02
2022-10-27T07:20:31.156Z,22.80
2022-10-27T07:22:58.550Z,21.62
2022-10-27T07:25:27.393Z,20.77
2022-10-27T07:27:55.890Z,22.10
2022-10-27T07:30:25.130Z,20.77
2022-10-27T07:32:52.768Z,22.00
2022-10-27T07:35:20.131Z,21.35
2022-10-27T07:37:47.588Z,20.88
2022-10-27T07:40:16.238Z,21.60
2022-10-27T07:42:50.588Z,22.02
2022-10-27T07:45:20.348Z,20.35
2022-10-27T07:47:49.601Z,22.00
2022-10-27T07:50:17.998Z,23.65
2022-10-27T07:52:52.553Z,22.92
2022-10-27T07:55:21.280Z,24.12
2022-10-27T07:58:00.597Z,22.27
2022-10-27T08:00:28.058Z,22.77
2022-10-27T08:02:55.632Z,24.05
2022-10-27T08:05:22.999Z,24.35
2022-10-27T08:07:50.555Z,22.77
2022-10-27T08:10:18.310Z,23.70
2022-10-27T08:12:45.645Z,25.70
2022-10-27T08:15:13.046Z,26.58
2022-10-27T08:17:40.673Z,24.75
2022-10-27T08:20:08.730Z,24.58
2022-10-27T08:22:36.146Z,27.15
2022-10-27T08:25:06.130Z,26.90
2022-10-27T08:27:36.452Z,29.67
2022-10-27T08:30:04.294Z,27.98
2022-10-27T08:32:31.835Z,30.02
2022-10-27T08:34:59.245Z,29.42
2022-10-27T08:37:26.854Z,29.83
2022-10-27T08:39:54.173Z,28.05
2022-10-27T08:42:44.214Z,26.45
2022-10-27T08:45:31.195Z,28.85
2022-10-27T08:47:58.820Z,28.10
2022-10-27T08:50:28.150Z,28.77
2022-10-27T08:53:05.643Z,28.90
2022-10-27T08:55:36.069Z,28.25
2022-10-27T08:58:25.380Z,29.67
2022-10-27T09:00:57.356Z,26.60
2022-10-27T09:03:36.762Z,28.40
2022-10-27T09:06:12.664Z,28.17
2022-10-27T09:08:48.612Z,31.65
2022-10-27T09:11:37.490Z,29.55
2022-10-27T09:14:26.094Z,29.05
2022-10-27T09:16:59.723Z,30.05
2022-10-27T09:19:34.035Z,28.87
2022-10-27T09:22:02.932Z,27.83
2022-10-27T09:24:30.482Z,29.27
2022-10-27T09:26:59.254Z,27.70
2022-10-27T09:29:27.215Z,30.67
2022-10-27T09:31:59.121Z,27.33
2022-10-27T09:34:28.710Z,26.70
2022-10-27T09:36:56.089Z,27.33
2022-10-27T09:39:23.519Z,27.85
2022-10-27T09:41:51.203Z,28.73
2022-10-27T09:44:20.685Z,24.45
2022-10-27T09:46:54.691Z,28.48
2022-10-27T09:49:27.806Z,28.25
2022-10-27T09:51:58.463Z,25.77
2022-10-27T09:54:36.742Z,27.52
2022-10-27T09:57:11.449Z,26.37
2022-10-27T09:59:39.096Z,27.10
2022-10-27T10:02:19.809Z,27.90
2022-10-27T10:04:47.841Z,27.60
2022-10-27T10:07:37.664Z,27.37
2022-10-27T10:10:06.828Z,28.40
2022-10-27T10:12:34.283Z,29.05
2022-10-27T10:15:10.383Z,30.73
2022-10-27T10:17:42.755Z,28.20
2022-10-27T10:20:35.587Z,27.85
2022-10-27T10:23:04.428Z,28.42
2022-10-27T10:25:35.649Z,30.90
2022-10-27T10:28:06.179Z,27.58
2022-10-27T10:30:37.939Z,27.45
2022-10-27T10:33:06.401Z,28.23
2022-10-27T10:35:43.642Z,28.98
2022-10-27T10:38:23.878Z,29.17
2022-10-27T10:41:03.498Z,28.38
2022-10-27T10:43:31.301Z,28.27
2022-10-27T10:45:59.404Z,28.52
2022-10-27T10:48:31.109Z,28.12
2022-10-27T10:50:58.839Z,29.40
2022-10-27T10:53:51.822Z,30.00
2022-10-27T10:56:50.250Z,27.95
2022-10-27T10:59:18.332Z,27.17
2022-10-27T11:01:54.921Z,28.15
2022-10-27T11:07:19.712Z,27.67
2022-10-27T11:10:09.901Z,27.50
2022-10-27T11:12:40.301Z,28.17
2022-10-27T11:15:16.122Z,30.08
2022-10-27T11:17:44.062Z,27.55
2022-10-27T11:20:18.564Z,28.83
2022-10-27T11:25:23.729Z,27.25
2022-10-27T11:28:05.265Z,30.48
2022-10-27T11:30:32.660Z,28.30
2022-10-27T11:33:15.642Z,27.87
2022-10-27T11:36:10.443Z,27.25
2022-10-27T11:38:59.748Z,26.65
2022-10-27T11:41:33.046Z,25.92
2022-10-27T11:44:08.766Z,24.80
2022-10-27T11:46:44.811Z,24.17
2022-10-27T11:49:38.248Z,25.20
2022-10-27T11:52:16.384Z,24.10
2022-10-27T11:54:43.998Z,23.60
2022-10-27T11:57:45.883Z,25.73
2022-10-27T12:00:26.603Z,25.37
2022-10-27T12:03:15.877Z,25.33
2022-10-27T12:05:52.180Z,23.87
2022-10-27T12:08:40.895Z,24.02
2022-10-27T12:11:40.530Z,24.52
2022-10-27T12:14:40.383Z,23.70
2022-10-27T12:17:20.173Z,25.85
2022-10-27T12:19:48.162Z,22.77
2022-10-27T12:22:28.291Z,23.15
2022-10-27T12:25:09.958Z,22.37
2022-10-27T12:27:41.731Z,22.42
2022-10-27T12:30:12.805Z,22.15
2022-10-27T12:32:47.726Z,20.95
2022-10-27T12:35:24.370Z,22.42
2022-10-27T12:40:48.334Z,22.23
2022-10-27T12:43:26.602Z,22.67
2022-10-27T12:46:06.250Z,23.83
2022-10-27T12:48:48.257Z,24.23
2022-10-27T12:51:33.289Z,25.90
2022-10-27T12:54:26.891Z,30.95
2022-10-27T12:57:02.507Z,29.65
2022-10-27T12:59:54.247Z,30.23
2022-10-27T13:02:25.380Z,31.12
2022-10-27T13:05:18.646Z,31.58
2022-10-27T13:08:08.820Z,31.55
2022-10-27T13:10:54.898Z,31.20
2022-10-27T13:13:44.419Z,34.20
2022-10-27T13:16:30.675Z,32.78
2022-10-27T13:19:32.273Z,32.97
2022-10-27T13:22:24.208Z,35.72
2022-10-27T13:25:16.223Z,32.92
2022-10-27T13:27:49.212Z,31.37
2022-10-27T13:30:20.760Z,34.75
2022-10-27T13:32:47.940Z,34.08
2022-10-27T13:35:15.141Z,32.17
2022-10-27T13:38:08.812Z,33.33
2022-10-27T13:40:36.999Z,34.53
2022-10-27T13:43:22.790Z,34.83
2022-10-27T13:45:55.905Z,34.40
2022-10-27T13:48:23.726Z,35.17
2022-10-27T13:50:57.870Z,36.50
2022-10-27T13:53:28.211Z,35.45
2022-10-27T13:55:57.011Z,35.40
2022-10-27T13:58:50.105Z,37.88
2022-10-27T14:01:35.510Z,33.83
2022-10-27T14:04:27.838Z,35.00
2022-10-27T14:07:00.196Z,33.67
2022-10-27T14:09:36.863Z,37.78
2022-10-27T14:14:42.330Z,32.42
2022-10-27T14:17:17.153Z,33.00
2022-10-27T14:19:51.201Z,34.97
2022-10-27T14:22:29.858Z,34.47
2022-10-27T14:25:02.751Z,31.83
2022-10-27T14:27:30.097Z,36.40
2022-10-27T14:30:05.665Z,32.20
2022-10-27T14:32:33.105Z,32.95
2022-10-27T14:35:15.307Z,31.23
2022-10-27T14:37:42.889Z,31.05
2022-10-27T14:40:25.592Z,31.90
2022-10-27T14:42:53.165Z,32.55
2022-10-27T14:45:22.253Z,30.70
2022-10-27T14:47:53.816Z,30.05
2022-10-27T14:50:25.095Z,30.42
2022-10-27T14:52:55.436Z,28.08
2022-10-27T14:55:33.881Z,27.20
2022-10-27T14:58:01.233Z,29.00
2022-10-27T15:00:32.625Z,30.20
2022-10-27T15:03:02.163Z,31.83
2022-10-27T15:05:31.777Z,29.55
2022-10-27T15:08:00.356Z,28.87
2022-10-27T15:10:34.451Z,30.27
2022-10-27T15:13:02.098Z,30.92
2022-10-27T15:15:32.439Z,31.62
2022-10-27T15:18:04.404Z,30.80
2022-10-27T15:20:32.070Z,30.60
2022-10-27T15:22:59.453Z,31.58
2022-10-27T15:25:27.979Z,31.30
2022-10-27T15:27:58.334Z,32.33
2022-10-27T15:30:25.661Z,28.90
2022-10-27T15:32:53.419Z,31.90
2022-10-27T15:35:35.484Z,32.72
2022-10-27T15:38:03.417Z,31.80
2022-10-27T15:40:45.200Z,32.85
2022-10-27T15:43:30.530Z,29.85
2022-10-27T15:46:31.708Z,30.97
2022-10-27T15:49:02.034Z,31.00
2022-10-27T15:51:53.123Z,32.38
2022-10-27T15:54:47.599Z,29.23
2022-10-27T15:57:42.336Z,32.67
2022-10-27T16:00:12.561Z,32.55
2022-10-27T16:02:46.086Z,33.08
2022-10-27T16:05:31.730Z,33.78
2022-10-27T16:07:59.995Z,32.35
2022-10-27T16:10:27.373Z,31.92
2022-10-27T16:12:55.164Z,29.92
2022-10-27T16:15:24.003Z,32.20
2022-10-27T16:17:55.718Z,30.52
2022-10-27T16:20:34.055Z,30.17
2022-10-27T16:23:01.401Z,31.00
2022-10-27T16:25:32.741Z,30.40
2022-10-27T16:28:00.191Z,30.42
2022-10-27T16:30:27.545Z,30.48
2022-10-27T16:33:00.014Z,30.37
2022-10-27T16:35:27.330Z,29.83
2022-10-27T16:37:56.112Z,31.37
2022-10-27T16:40:24.214Z,30.05
2022-10-27T16:42:52.621Z,27.92
2022-10-27T16:45:20.577Z,31.77
2022-10-27T16:47:51.564Z,31.08
2022-10-27T16:50:19.409Z,30.10
2022-10-27T16:52:53.935Z,29.15
2022-10-27T16:55:21.765Z,27.02
2022-10-27T16:57:49.909Z,31.90
2022-10-27T17:00:17.642Z,29.75
2022-10-27T17:02:45.007Z,29.65
2022-10-27T17:05:12.613Z,26.92
2022-10-27T17:07:41.995Z,28.05
2022-10-27T17:10:10.082Z,29.00
2022-10-27T17:12:37.729Z,25.40
2022-10-27T17:15:05.247Z,27.75
2022-10-27T17:17:32.845Z,29.35
2022-10-27T17:20:00.480Z,30.20
2022-10-27T17:22:27.914Z,25.50
2022-10-27T17:24:55.279Z,27.95
2022-10-27T17:27:22.867Z,27.70
2022-10-27T17:29:50.267Z,28.15
2022-10-27T17:32:17.593Z,29.23
2022-10-27T17:34:45.209Z,27.50
2022-10-27T17:37:15.294Z,27.92
2022-10-27T17:39:42.634Z,28.20
2022-10-27T17:42:10.294Z,27.50
2022-10-27T17:44:37.646Z,27.13
2022-10-27T17:47:05.026Z,26.83
2022-10-27T17:49:32.604Z,27.73
2022-10-27T17:51:59.939Z,27.13
2022-10-27T17:54:27.255Z,27.00
2022-10-27T17:56:54.827Z,26.55
2022-10-27T17:59:22.137Z,25.92
2022-10-27T18:01:50.162Z,27.17
2022-10-27T18:04:17.864Z,26.62
2022-10-27T18:06:45.210Z,27.13
2022-10-27T18:09:13.579Z,25.12
2022-10-27T18:11:41.938Z,25.20
2022-10-27T18:14:14.327Z,25.88
2022-10-27T18:16:42.118Z,26.55
2022-10-27T18:19:10.668Z,24.92
2022-10-27T18:21:39.245Z,25.00
2022-10-27T18:24:07.568Z,26.42
2022-10-27T18:26:36.255Z,26.42
2022-10-27T18:29:04.522Z,26.60
2022-10-27T18:31:36.095Z,26.67
2022-10-27T18:34:07.842Z,26.42
2022-10-27T18:36:35.604Z,26.50
2022-10-27T18:39:03.127Z,27.05
2022-10-27T18:41:35.090Z,26.98
2022-10-27T18:44:02.888Z,28.02
2022-10-27T18:46:30.275Z,26.30
2022-10-27T18:49:01.846Z,25.33
2022-10-27T18:51:30.503Z,24.42
2022-10-27T18:54:00.449Z,26.50
2022-10-27T18:56:27.773Z,26.87
2022-10-27T18:58:56.409Z,26.42
2022-10-27T19:01:24.057Z,28.92
2022-10-27T19:03:55.229Z,27.05
2022-10-27T19:06:22.950Z,27.80
2022-10-27T19:08:50.279Z,28.75
2022-10-27T19:11:18.817Z,28.98
2022-10-27T19:13:46.450Z,29.42
2022-10-27T19:16:18.518Z,29.27
2022-10-27T19:18:46.566Z,29.02
2022-10-27T19:21:16.255Z,26.67
2022-10-27T19:23:47.116Z,28.77
2022-10-27T19:26:18.983Z,28.10
2022-10-27T19:28:46.898Z,29.27
2022-10-27T19:31:17.273Z,27.40
2022-10-27T19:33:45.396Z,25.30
2022-10-27T19:36:23.472Z,28.70
2022-10-27T19:38:51.389Z,26.42
2022-10-27T19:41:20.515Z,27.50
2022-10-27T19:43:48.939Z,27.90
2022-10-27T19:46:20.730Z,28.10
2022-10-27T19:48:51.793Z,28.77
2022-10-27T19:51:21.233Z,25.05
2022-10-27T19:53:48.935Z,31.20
2022-10-27T19:56:16.673Z,23.73
2022-10-27T19:58:44.615Z,31.62
2022-10-27T20:01:20.291Z,28.73
2022-10-27T20:03:48.100Z,26.95
2022-10-27T20:06:15.468Z,27.05
2022-10-27T20:08:43.146Z,28.02
2022-10-27T20:11:18.668Z,28.77
2022-10-27T20:13:48.662Z,28.75
2022-10-27T20:16:17.116Z,26.70
2022-10-27T20:18:44.668Z,27.17
2022-10-27T20:21:12.459Z,28.20
2022-10-27T20:23:40.069Z,25.70
2022-10-27T20:28:54.959Z,27.27
2022-10-27T20:31:22.269Z,24.58
2022-10-27T20:33:49.608Z,25.02
2022-10-27T20:36:17.233Z,27.60
2022-10-27T20:38:44.640Z,26.65
2022-10-27T20:41:16.396Z,28.70
2022-10-27T20:43:44.114Z,28.25
2022-10-27T20:46:11.543Z,25.62
2022-10-27T20:48:40.688Z,25.45
2022-10-27T20:51:12.496Z,23.10
2022-10-27T20:53:40.116Z,22.92
2022-10-27T20:56:10.085Z,24.52
2022-10-27T20:58:37.427Z,24.20
2022-10-27T21:01:40.586Z,24.83
2022-10-27T21:04:13.067Z,22.90
2022-10-27T21:06:44.383Z,24.40
2022-10-27T21:09:13.955Z,23.98
2022-10-27T21:11:41.506Z,24.17
2022-10-27T21:14:09.100Z,24.50
2022-10-27T21:16:36.772Z,22.45
2022-10-27T21:19:06.100Z,23.87
2022-10-27T21:21:33.498Z,22.55
2022-10-27T21:24:04.429Z,23.12
2022-10-27T21:26:31.800Z,22.52
2022-10-27T21:28:59.831Z,22.27
2022-10-27T21:31:29.177Z,22.40
2022-10-27T21:33:56.750Z,23.45
2022-10-27T21:36:24.108Z,24.30
2022-10-27T21:38:51.739Z,25.05
2022-10-27T21:41:20.887Z,22.27
2022-10-27T21:43:52.137Z,22.62
2022-10-27T21:46:21.398Z,23.80
2022-10-27T21:48:48.750Z,24.98
2022-10-27T21:51:16.112Z,23.77
2022-10-27T21:53:43.761Z,23.40
2022-10-27T21:56:11.647Z,24.20
2022-10-27T21:58:39.241Z,22.92
2022-10-27T22:01:11.653Z,23.75
2022-10-27T22:03:39.820Z,26.30
2022-10-27T22:06:08.167Z,23.90
2022-10-27T22:08:35.876Z,25.58
2022-10-27T22:11:08.087Z,27.90
2022-10-27T22:13:35.636Z,24.23
2022-10-27T22:16:07.757Z,27.92
2022-10-27T22:18:35.298Z,30.12
2022-10-27T22:21:03.111Z,26.98
2022-10-27T22:23:30.432Z,30.12
2022-10-27T22:26:08.058Z,30.62
2022-10-27T22:28:35.847Z,27.40
2022-10-27T22:31:07.215Z,29.17
2022-10-27T22:33:34.547Z,30.73
2022-10-27T22:36:06.797Z,30.12
2022-10-27T22:38:34.331Z,29.77
2022-10-27T22:41:06.993Z,29.55
2022-10-27T22:43:37.577Z,29.80
2022-10-27T22:46:05.361Z,30.70
2022-10-27T22:48:33.419Z,28.90
2022-10-27T22:51:01.651Z,28.73
2022-10-27T22:53:37.634Z,26.60
2022-10-27T22:56:23.532Z,28.67
2022-10-27T23:01:27.398Z,27.40
2022-10-27T23:03:56.909Z,28.17
2022-10-27T23:06:25.117Z,27.37
2022-10-27T23:08:57.999Z,28.33
2022-10-27T23:11:26.527Z,29.05
2022-10-27T23:13:53.850Z,28.15
2022-10-27T23:16:21.181Z,25.90
2022-10-27T23:18:48.848Z,26.77
2022-10-27T23:21:16.576Z,26.55
2022-10-27T23:23:43.945Z,27.50
2022-10-27T23:26:35.602Z,25.92
2022-10-27T23:29:04.598Z,29.05
2022-10-27T23:31:32.481Z,28.52
2022-10-27T23:34:01.120Z,27.00
2022-10-27T23:36:29.510Z,27.15
2022-10-27T23:38:57.354Z,27.05
2022-10-27T23:41:24.822Z,26.10
2022-10-27T23:43:53.360Z,26.40
2022-10-27T23:46:21.277Z,26.10
2022-10-27T23:48:48.697Z,26.15
2022-10-27T23:51:16.113Z,26.80
2022-10-27T23:53:43.732Z,27.55
2022-10-27T23:56:11.437Z,27.15
2022-10-27T23:58:40.309Z,25.45
